Leatherhead, United Kingdom
Current Conditions -  °F | °C
As of 8:50 AM on Friday 24 Oct 2014 (Local Time) from EGKK Reporting Station
Light Rain Light Rain  
Wind Chill: 57°   Ceiling: Unl
Heat Index: 57°   Visibility: 6mi
Dew Point: 57°   Wind: 6mph
Humidity: 100%   Direction: 200°SSW
Pressure: 30"   Gusts: NA
Location:  51.3°N, 0.33°W
Report Text: EGKK 240750Z 20005KT 9999 -RA FEW007 SCT013 14/14 Q1016
Loading
Personal Weather Stations






























Interactive Weather Map New forecast layout! Learn more

10-Day Weather Forecast

Advertisements
Track Severe Weather on mobile